Southern California Logo

Westlake, CA Single Family Real Estate Listings

196 Total Real Estate Listings * Click on table heading to sort
Date Posted Property Type Style Address Price Living Area Lot Size Price/Sq Ft.
2018-09-21 Single Family 1487 La Venta Drive Westlake, CA 91361 $1,775,000 2,005 sq. ft. 5,663 sq. ft. $885
2018-09-21 Single Family 2773 Rainfield Avenue Westlake, CA 91362 $2,200,000 4,007 sq. ft. 14,375 sq. ft. $549
2018-09-21 Single Family Tuscan; Villa 4787 Windhaven Drive Westlake, CA 91362 $12,995,000 16,702 sq. ft. 207,781 sq. ft. $778
2018-09-21 Single Family 967 Via Colinas Westlake, CA 91362 $594,900 1,332 sq. ft. 436 sq. ft. $447
2018-09-21 Single Family 1793 Saint Andrews Place Westlake, CA 91362 $1,050,000 2,140 sq. ft. 9,148 sq. ft. $491
2018-09-19 Single Family 779 Cedar Point Place Westlake, CA 91362 $1,149,000 2,463 sq. ft. 8,276 sq. ft. $467
2018-09-19 Single Family 720 Via Colinas Westlake, CA 91362 $579,900 1,332 sq. ft. 871 sq. ft. $435
2018-09-19 Single Family Other 473 Lower Lake Road Westlake, CA 91361 $9,499,950 130,680 sq. ft.
2018-09-19 Single Family Ranch 31701 Foxfield Drive Westlake, CA 91361 $2,100,000 3,651 sq. ft. 25,700 sq. ft. $575
2018-09-18 Single Family Traditional 1070 Westcreek Lane Westlake, CA 91362 $914,000 2,512 sq. ft. 1,742 sq. ft. $364
2018-09-18 Single Family 31857 Saddletree Drive Westlake, CA 91361 $1,899,950 5,143 sq. ft. 15,682 sq. ft. $369
2018-09-18 Single Family Mediterranean 1090 Vista Ridge Lane Westlake, CA 91362 $5,995,000 9,890 sq. ft. 137,650 sq. ft. $606
2018-09-18 Single Family 949 Brook Meadow Court Westlake, CA 91362 $5,950,000 8,239 sq. ft. 91,476 sq. ft. $722
2018-09-17 Single Family Cape Cod 4531 Tam Oshanter Drive Westlake, CA 91362 $1,295,000 2,906 sq. ft. 7,405 sq. ft. $446
2018-09-17 Single Family Traditional 332 Eric Place Westlake, CA 91362 $725,000 2,010 sq. ft. 871 sq. ft. $361
2018-09-15 Single Family 724 Valley Drive Westlake, CA 91362 $759,900 1,949 sq. ft. $390
2018-09-15 Single Family 31930 Foxfield Drive Westlake, CA 91361 $1,399,000 3,977 sq. ft. 20,038 sq. ft. $352
2018-09-14 Single Family 4177 Dan Wood Drive Westlake, CA 91362 $1,025,000 2,572 sq. ft. 1,742 sq. ft. $399
2018-09-14 Single Family 2261 Hillsbury Road Westlake, CA 91361 $1,129,000 2,340 sq. ft. 10,890 sq. ft. $482
2018-09-14 Single Family Traditional 894 Hartglen Avenue Westlake, CA 91361 $1,899,000 2,282 sq. ft. 6,534 sq. ft. $832
2018-09-13 Single Family 987 Triunfo Canyon Road Westlake, CA 91361 $885,000 1,862 sq. ft. 7,405 sq. ft. $475
2018-09-12 Single Family Contemporary 1152 Westlake Boulevard Westlake, CA 91361 $765,000 1,809 sq. ft. 3,920 sq. ft. $423
2018-09-12 Single Family 1385 Bridgegate Street Westlake, CA 91361 $3,095,000 6,000 sq. ft. 132,422 sq. ft. $516
2018-09-12 Single Family Traditional 1624 Folkestone Terrace Westlake, CA 91361 $1,299,000 2,449 sq. ft. 19,166 sq. ft. $530
2018-09-12 Single Family Mediterranean 2075 Hathaway Avenue Westlake, CA 91362 $1,895,000 5,236 sq. ft. 18,731 sq. ft. $362
2018-09-12 Single Family 45 Via Colinas Westlake, CA 91362 $487,000 984 sq. ft. 436 sq. ft. $495
2018-09-12 Single Family 86 Archery Way Westlake, CA 91361 $415,000 1,040 sq. ft. 3,485 sq. ft. $399
2018-09-10 Single Family 4892 Floresta Court Westlake, CA 91362 $2,050,000 4,332 sq. ft. 21,344 sq. ft. $473
2018-09-10 Single Family 1365 Pathfinder Avenue Westlake, CA 91362 $2,375,000 5,155 sq. ft. 23,522 sq. ft. $461
2018-09-10 Single Family Mediterranean; Spanish 1683 Shetland Place Westlake, CA 91362 $2,850,000 6,502 sq. ft. 20,038 sq. ft. $438
2018-09-08 Single Family 1212 Westlake Boulevard Westlake, CA 91361 $595,000 1,600 sq. ft. 3,920 sq. ft. $372
2018-09-08 Single Family Tudor 4196 Summit Ridge Court Westlake, CA 91362 $1,899,900 3,585 sq. ft. 124,582 sq. ft. $530
2018-09-07 Single Family Traditional 5669 Tanner Ridge Avenue Westlake, CA 91362 $849,999 1,949 sq. ft. 1,307 sq. ft. $436
2018-09-07 Single Family Patio Home 1032 Cherry Creek Circle Westlake, CA 91362 $775,000 2,057 sq. ft. 1,307 sq. ft. $377
2018-09-07 Single Family 2523 Montecito Avenue Westlake, CA 91362 $1,798,700 4,440 sq. ft. 10,019 sq. ft. $405
2018-09-07 Single Family 5777 Tanner Ridge Avenue Westlake, CA 91362 $899,999 1,949 sq. ft. 1,307 sq. ft. $462
2018-09-06 Single Family Ranch 32440 Saddle Mountain Drive Westlake, CA 91361 $1,025,000 2,277 sq. ft. 500,940 sq. ft. $450
2018-09-05 Single Family 1150 Westlake Boulevard Westlake, CA 91361 $845,000 1,936 sq. ft. 3,920 sq. ft. $436
2018-09-05 Single Family 1521 Covington Avenue Westlake, CA 91361 $1,125,000 2,458 sq. ft. 6,534 sq. ft. $458
2018-09-05 Single Family Traditional 31828 Saddletree Drive Westlake, CA 91361 $1,999,820 3,810 sq. ft. 19,166 sq. ft. $525
2018-09-05 Single Family 1463 View Drive Westlake, CA 91362 $689,000 1,804 sq. ft. 1,307 sq. ft. $382
2018-09-05 Single Family 3814 Mainsail Circle Westlake, CA 91361 $1,300,000 2,222 sq. ft. 4,792 sq. ft. $585
2018-09-04 Single Family 1694 Trafalgar Place Westlake, CA 91361 $1,109,000 2,424 sq. ft. 7,841 sq. ft. $458
2018-09-04 Single Family Contemporary 3352 Medicine Bow Court Westlake, CA 91362 $939,000 2,668 sq. ft. 9,148 sq. ft. $352
2018-09-04 Single Family 2817 Shoreview Circle Westlake, CA 91361 $699,900 1,144 sq. ft. 2,614 sq. ft. $612
2018-09-04 Single Family 32114 Harborview Lane Westlake, CA 91361 $998,000 1,300 sq. ft. 3,049 sq. ft. $768
2018-09-04 Single Family Traditional 3304 Sawtooth Court Westlake, CA 91362 $899,900 2,434 sq. ft. 7,405 sq. ft. $370
2018-09-03 Single Family 2511 Kirsten Lee Drive Westlake, CA 91361 $1,374,000 3,719 sq. ft. 27,878 sq. ft. $369
2018-09-03 Single Family Patio Home 32116 Beachlake Lane Westlake, CA 91361 $850,000 1,947 sq. ft. 3,049 sq. ft. $437
2018-08-31 Single Family Mid Century 4401 Beaconsfield Court Westlake, CA 91361 $1,150,000 1,952 sq. ft. 7,405 sq. ft. $589
2018-08-31 Single Family Mediterranean 1691 Bellshire Court Westlake, CA 91362 $2,275,000 3,833 sq. ft. 24,829 sq. ft. $594
2018-08-31 Single Family Cape Cod; Traditional 30955 Minute Man Way Westlake, CA 91361 $669,900 1,610 sq. ft. 890,366 sq. ft. $416
2018-08-31 Single Family 1487 View Drive Westlake, CA 91362 $825,000 2,219 sq. ft. 1,307 sq. ft. $372
2018-08-30 Single Family Mid Century 1017 Ashford Court Westlake, CA 91361 $1,050,000 2,002 sq. ft. 7,405 sq. ft. $524
2018-08-30 Single Family Contemporary 3089 Sierra Drive Westlake, CA 91362 $879,000 2,087 sq. ft. 7,405 sq. ft. $421
2018-08-27 Single Family Contemporary 3663 Golden Leaf Drive Westlake, CA 91361 $1,895,000 3,869 sq. ft. 24,829 sq. ft. $490
2018-08-24 Single Family 4299 Valley Spring Drive Westlake, CA 91362 $2,800,000 7,400 sq. ft. 23,087 sq. ft. $378
2018-08-24 Single Family Contemporary; Traditional 32036 Wallington Court Westlake, CA 91361 $1,169,000 2,512 sq. ft. 7,405 sq. ft. $465
2018-08-24 Single Family Contemporary 1166 Westlake Boulevard Westlake, CA 91361 $629,000 1,656 sq. ft. 3,920 sq. ft. $380
2018-08-24 Single Family 5657 Tanner Ridge Avenue Westlake, CA 91362 $899,999 1,949 sq. ft. 1,307 sq. ft. $462
2018-08-23 Single Family 4354 Hunt Club Lane Westlake, CA 91361 $2,050,000 5,480 sq. ft. 28,314 sq. ft. $374
2018-08-23 Single Family 2048 Rosebay Street Westlake, CA 91361 $1,098,000 1,997 sq. ft. 6,534 sq. ft. $550
2018-08-23 Single Family Traditional 32116 Oakshore Drive Westlake, CA 91361 $3,499,000 4,765 sq. ft. 5,663 sq. ft. $734
2018-08-21 Single Family 3078 Sierra Drive Westlake, CA 91362 $924,900 2,251 sq. ft. 6,970 sq. ft. $411
2018-08-21 Single Family 2872 Appalachian Court Westlake, CA 91362 $1,025,000 2,682 sq. ft. 7,405 sq. ft. $382
2018-08-19 Single Family 2466 Swanfield Court Westlake, CA 91361 $1,289,000 1,964 sq. ft. 1,307 sq. ft. $656
2018-08-18 Single Family 1494 Caitlyn Circle Westlake, CA 91361 $2,200,000 4,492 sq. ft. 13,504 sq. ft. $490
2018-08-17 Single Family Modern 2472 Leaflock Avenue Westlake, CA 91361 $999,000 1,913 sq. ft. 6,970 sq. ft. $522
2018-08-17 Single Family 31673 Foxfield Drive Westlake, CA 91361 $1,799,000 4,369 sq. ft. 29,185 sq. ft. $412
2018-08-17 Single Family 2027 Waterside Circle Westlake, CA 91362 $2,159,000 5,718 sq. ft. 21,780 sq. ft. $378
2018-08-16 Single Family 2114 Bridgegate Court Westlake, CA 91361 $1,289,000 2,510 sq. ft. 7,841 sq. ft. $514
2018-08-15 Single Family Tuscan 2722 Rainfield Avenue Westlake, CA 91362 $2,099,000 5,718 sq. ft. 12,632 sq. ft. $367
2018-08-15 Single Family 2165 Glastonbury Road Westlake, CA 91361 $969,000 2,140 sq. ft. 10,454 sq. ft. $453
2018-08-15 Single Family Contemporary 1295 Willowgreen Court Westlake, CA 91361 $1,050,000 2,600 sq. ft. 10,454 sq. ft. $404
2018-08-14 Single Family Contemporary 3931 Fairbreeze Circle Westlake, CA 91361 $2,095,000 2,924 sq. ft. 5,663 sq. ft. $716
2018-08-14 Single Family Mediterranean 733 Spruce Meadow Place Westlake, CA 91362 $4,695,000 6,634 sq. ft. 48,352 sq. ft. $708
2018-08-14 Single Family Mediterranean; Other; Traditional 1592 Devonshire Avenue Westlake, CA 91361 $1,033,000 2,490 sq. ft. 7,405 sq. ft. $415
2018-08-14 Single Family Traditional 956 Cedarcliff Court Westlake, CA 91362 $915,000 2,267 sq. ft. 1,307 sq. ft. $404
2018-08-12 Single Family 1183 Westcreek Lane Westlake, CA 91362 $940,000 2,303 sq. ft. $408
2018-08-10 Single Family 1793 Saint Andrews Place Westlake, CA 91362 $1,099,000 2,140 sq. ft. 9,148 sq. ft. $514
2018-08-09 Single Family 1364 Caitlyn Circle Westlake, CA 91361 $2,100,000 4,259 sq. ft. 18,731 sq. ft. $493
2018-08-09 Single Family 103 Merry Oak Lane Westlake, CA 91361 $429,000 1,368 sq. ft. 4,356 sq. ft. $314
2018-08-08 Single Family Mediterranean 2480 Featherwood Street Westlake, CA 91362 $1,650,000 4,481 sq. ft. 10,890 sq. ft. $368
2018-08-07 Single Family 991 Via Colinas Westlake, CA 91362 $589,950 1,332 sq. ft. 436 sq. ft. $443
2018-08-07 Single Family 1584 Covington Avenue Westlake, CA 91361 $1,250,000 2,765 sq. ft. 6,534 sq. ft. $452
2018-08-07 Single Family 630 Via Colinas Westlake, CA 91362 $485,000 984 sq. ft. 436 sq. ft. $493
2018-08-04 Single Family 2117 Basswood Court Westlake, CA 91361 $983,000 1,858 sq. ft. 9,148 sq. ft. $529
2018-08-03 Single Family Contemporary 3823 Charthouse Circle Westlake, CA 91361 $1,999,000 2,874 sq. ft. 4,792 sq. ft. $696
2018-08-03 Single Family 1306 White Dove Circle Westlake, CA 91362 $1,650,000 3,590 sq. ft. 16,553 sq. ft. $460
2018-08-03 Single Family 1291 Bluesail Circle Westlake, CA 91361 $1,635,000 2,249 sq. ft. 4,792 sq. ft. $727
2018-08-02 Single Family Ranch; Traditional 1986 Channelford Road Westlake, CA 91361 $1,650,000 3,477 sq. ft. 30,492 sq. ft. $475
2018-08-02 Single Family 1230 Westlake Boulevard Westlake, CA 91361 $659,000 1,636 sq. ft. 3,920 sq. ft. $403
2018-08-01 Single Family Mediterranean 3079 Grandoaks Drive Westlake, CA 91361 $1,350,000 3,516 sq. ft. 8,712 sq. ft. $384
2018-08-01 Single Family Other 1367 Redsail Circle Westlake, CA 91361 $3,000,000 4,246 sq. ft. 9,583 sq. ft. $707
2018-08-01 Single Family Other 1363 Redsail Circle Westlake, CA 91361 $1,700,000 2,019 sq. ft. 5,663 sq. ft. $842
2018-07-31 Single Family 93 Sherwood Drive Westlake, CA 91361 $575,000 1,455 sq. ft. 4,792 sq. ft. $395
2018-07-31 Single Family Traditional 3107 Hillcrest Drive Westlake, CA 91362 $648,000 1,773 sq. ft. 871 sq. ft. $365
2018-07-30 Single Family Contemporary; Ranch 1658 Oldcastle Place Westlake, CA 91361 $899,000 1,879 sq. ft. 7,405 sq. ft. $478
2018-07-30 Single Family 5623 Hidden Glen Court Westlake, CA 91362 $1,695,000 2,824 sq. ft. 13,504 sq. ft. $600
2018-07-30 Single Family Traditional 1562 Fairmount Road Westlake, CA 91362 $1,799,950 4,210 sq. ft. 28,750 sq. ft. $428
2018-07-30 Single Family 175 Via Colinas Westlake, CA 91362 $424,000 856 sq. ft. 871 sq. ft. $495
2018-07-29 Single Family 1630 Trafalgar Place Westlake, CA 91361 $1,129,000 2,336 sq. ft. 6,534 sq. ft. $483
2018-07-28 Single Family Traditional 1134 Country Valley Road Westlake, CA 91362 $3,150,000 6,595 sq. ft. 54,886 sq. ft. $478
2018-07-25 Single Family Spanish 4103 Hillcrest Drive Westlake, CA 91362 $1,599,900 2,263 sq. ft. 426,888 sq. ft. $707
2018-07-25 Single Family 5618 Glenhaven Circle Westlake, CA 91362 $739,000 1,819 sq. ft. 871 sq. ft. $406
2018-07-24 Single Family 5462 Edgecliff Circle Westlake, CA 91362 $1,895,000 3,820 sq. ft. 28,314 sq. ft. $496
2018-07-23 Single Family Traditional 3229 Sawtooth Court Westlake, CA 91362 $945,000 2,490 sq. ft. 9,583 sq. ft. $380
2018-07-23 Single Family 3818 Mainsail Circle Westlake, CA 91361 $1,649,000 2,400 sq. ft. 5,227 sq. ft. $687
2018-07-23 Single Family Architectural; Contemporary 4009 Whitesail Circle Westlake, CA 91361 $2,400,000 3,306 sq. ft. 5,663 sq. ft. $726
2018-07-21 Single Family 1290 Barclay Court Westlake, CA 91361 $1,349,000 3,508 sq. ft. 12,197 sq. ft. $385
2018-07-20 Single Family 5735 Tanner Ridge Avenue Westlake, CA 91362 $680,000 1,949 sq. ft. 1,307 sq. ft. $349
2018-07-18 Single Family 32305 Blue Rock Westlake, CA 91361 $1,200,000 3,918 sq. ft. 8,712 sq. ft. $306
2018-07-17 Single Family 835 Via Colinas Westlake, CA 91362 $589,000 1,332 sq. ft. 436 sq. ft. $442
2018-07-17 Single Family Mediterranean 2183 Hathaway Avenue Westlake, CA 91362 $1,895,000 4,007 sq. ft. 20,038 sq. ft. $473
2018-07-17 Single Family 4918 Floresta Court Westlake, CA 91362 $2,000,000 3,917 sq. ft. 20,909 sq. ft. $511
2018-07-17 Single Family 2227 Highgate Road Westlake, CA 91361 $1,265,000 2,823 sq. ft. 11,326 sq. ft. $448
2018-07-16 Single Family 3485 Ridgeford Drive Westlake, CA 91361 $2,199,000 4,794 sq. ft. 16,117 sq. ft. $459
2018-07-13 Single Family 2195 Kinross Court Westlake, CA 91361 $1,079,000 2,449 sq. ft. 10,454 sq. ft. $441
2018-07-13 Single Family 725 Cedar Point Place Westlake, CA 91362 $1,490,000 3,520 sq. ft. 9,583 sq. ft. $423
2018-07-12 Single Family Traditional 3922 Freshwind Circle Westlake, CA 91361 $2,200,000 3,567 sq. ft. 6,098 sq. ft. $617
2018-07-11 Single Family 2846 Instone Court Westlake, CA 91361 $409,900 924 sq. ft. 3,049 sq. ft. $444
2018-07-11 Single Family Traditional 2355 Stormcroft Court Westlake, CA 91361 $999,950 2,227 sq. ft. 7,841 sq. ft. $449
2018-07-10 Single Family 1675 Ryder Cup Drive Westlake, CA 91362 $1,010,000 2,458 sq. ft. 6,098 sq. ft. $411
2018-07-09 Single Family Contemporary 2968 Salmon River Circle Westlake, CA 91362 $885,000 1,699 sq. ft. 7,405 sq. ft. $521
2018-07-09 Single Family Contemporary 5341 Long Shadow Court Westlake, CA 91362 $1,899,900 4,050 sq. ft. 15,682 sq. ft. $469
2018-07-09 Single Family Contemporary 31723 Dunraven Court Westlake, CA 91361 $1,025,000 2,412 sq. ft. 6,970 sq. ft. $425
2018-07-07 Single Family 4090 Cresthaven Drive Westlake, CA 91362 $1,835,000 3,499 sq. ft. 28,750 sq. ft. $524
2018-07-06 Single Family Mediterranean 898 Gold Spring Place Westlake, CA 91361 $977,000 2,824 sq. ft. 8,276 sq. ft. $346
2018-07-05 Single Family Cape Cod 4188 Cresthaven Drive Westlake, CA 91362 $2,849,900 5,429 sq. ft. 23,958 sq. ft. $525
2018-07-03 Single Family Mediterranean 1017 Westbend Road Westlake, CA 91362 $5,995,000 8,837 sq. ft. 60,984 sq. ft. $678
2018-07-02 Single Family Traditional 32214 Oakshore Drive Westlake, CA 91361 $3,390,000 3,762 sq. ft. 6,970 sq. ft. $901
2018-07-02 Single Family Ranch; Traditional 1623 Larkfield Avenue Westlake, CA 91362 $1,698,000 3,513 sq. ft. 20,473 sq. ft. $483
2018-07-01 Single Family Traditional 1524 Windy Mountain Avenue Westlake, CA 91362 $2,099,000 7,400 sq. ft. 17,860 sq. ft. $284
2018-06-30 Single Family 2612 Yellowwood Drive Westlake, CA 91361 $1,499,000 4,258 sq. ft. 8,712 sq. ft. $352
2018-06-29 Single Family 31756 Bainbrook Court Westlake, CA 91361 $899,000 2,312 sq. ft. 6,970 sq. ft. $389
2018-06-23 Single Family Spanish 5729 Stone Mountain Lane Westlake, CA 91362 $1,450,000 3,330 sq. ft. 15,682 sq. ft. $435
2018-06-22 Single Family French Country 31640 Saddletree Drive Westlake, CA 91361 $3,375,000 7,758 sq. ft. 39,640 sq. ft. $435
2018-06-22 Single Family 4400 Guildhall Court Westlake, CA 91361 $1,025,000 2,371 sq. ft. 6,098 sq. ft. $432
2018-06-22 Single Family Traditional 32015 Grenville Court Westlake, CA 91361 $995,000 2,074 sq. ft. 6,098 sq. ft. $480
2018-06-22 Single Family 5145 Lakeview Canyon Road Westlake, CA 91362 $2,795,000 4,605 sq. ft. 35,284 sq. ft. $607
2018-06-21 Single Family Traditional 4201 Dan Wood Drive Westlake, CA 91362 $1,130,000 2,572 sq. ft. 1,742 sq. ft. $439
2018-06-18 Single Family 3823 Bowsprit Circle Westlake, CA 91361 $1,549,000 2,222 sq. ft. 4,792 sq. ft. $697
2018-06-18 Single Family 2351 Topsail Circle Westlake, CA 91361 $1,199,000 2,161 sq. ft. 8,712 sq. ft. $555
2018-06-18 Single Family Mediterranean 4772 Canterbury Street Westlake, CA 91362 $1,249,000 2,641 sq. ft. 6,970 sq. ft. $473
2018-06-17 Single Family Mediterranean; Ranch 1688 Hidden Valley Road Valley Westlake, CA 91361 $11,900,000 1,785 sq. ft. 1,099,890 sq. ft. $6,667
2018-06-15 Single Family 4210 Dan Wood Drive Westlake, CA 91362 $1,199,000 2,572 sq. ft. 1,742 sq. ft. $466
2018-06-14 Single Family 4578 Rayburn Street Westlake, CA 91362 $1,399,500 2,316 sq. ft. 7,405 sq. ft. $604
2018-06-14 Single Family Mediterranean Westlake, CA $3,695,000 7,556 sq. ft. 64,904 sq. ft. $489
2018-06-14 Single Family 31608 Village Center Road Westlake, CA 91361 $1,075,000 2,371 sq. ft. 6,970 sq. ft. $453
2018-06-10 Single Family 28 Nottingham Road Westlake, CA 91361 $475,999 2,248 sq. ft. 7,405 sq. ft. $212
2018-06-10 Single Family Contemporary 4555 Tam Oshanter Drive Westlake, CA 91362 $1,075,000 2,458 sq. ft. 4,356 sq. ft. $437
2018-06-07 Single Family Mediterranean 4193 Dan Wood Drive Westlake, CA 91362 $1,249,000 2,572 sq. ft. 1,742 sq. ft. $486
2018-06-05 Single Family 5542 Little Fawn Court Westlake, CA 91362 $2,499,900 6,176 sq. ft. 29,185 sq. ft. $405
2018-06-04 Single Family 3930 Freshwind Circle Westlake, CA 91361 $1,969,000 2,499 sq. ft. 6,098 sq. ft. $788
2018-06-02 Single Family 1008 Cherry Creek Circle Westlake, CA 91362 $785,000 1,819 sq. ft. 871 sq. ft. $432
2018-06-01 Single Family 3895 Peacock Court Westlake, CA 91362 $3,580,000 8,814 sq. ft. 230,432 sq. ft. $406
2018-05-30 Single Family 1604 Camberwell Place Westlake, CA 91361 $1,095,000 2,835 sq. ft. 6,534 sq. ft. $386
2018-05-29 Single Family Ranch 4539 Valley Spring Drive Westlake, CA 91362 $1,699,000 4,537 sq. ft. 23,087 sq. ft. $374
2018-05-26 Single Family French 1064 Lakeview Canyon Road Westlake, CA 91362 $6,499,000 12,167 sq. ft. 132,422 sq. ft. $534
2018-05-25 Single Family Mediterranean; Traditional 3326 Sierra Drive Westlake, CA 91362 $918,000 2,490 sq. ft. 7,841 sq. ft. $369
2018-05-23 Single Family 5531 Little Fawn Court Westlake, CA 91362 $2,785,000 5,432 sq. ft. 21,780 sq. ft. $513
2018-05-22 Single Family 1455 Whitehall Place Westlake, CA 91361 $1,250,000 2,000 sq. ft. 7,841 sq. ft. $625
2018-05-21 Single Family 4639 Rayburn Street Westlake, CA 91362 $1,250,000 3,096 sq. ft. 11,326 sq. ft. $404
2018-05-17 Single Family Contemporary; Mediterranean 1532 Covington Avenue Westlake, CA 91361 $999,900 2,305 sq. ft. 6,534 sq. ft. $434
2018-05-16 Single Family Traditional 5579 Grey Feather Court Westlake, CA 91362 $2,050,000 5,486 sq. ft. 20,473 sq. ft. $374
2018-05-11 Single Family 3254 Medicine Bow Court Westlake, CA 91362 $1,145,000 2,637 sq. ft. 7,841 sq. ft. $434
2018-05-11 Single Family Mediterranean 774 Lakeview Canyon Road Westlake, CA 91362 $3,290,000 7,484 sq. ft. 141,134 sq. ft. $440
2018-05-10 Single Family Contemporary; Modern 1400 Redsail Circle Westlake, CA 91361 $2,795,000 3,221 sq. ft. 5,227 sq. ft. $868
2018-05-07 Single Family 300 Manzanita Lane Westlake, CA 91361 $799,000 2,819 sq. ft. 13,939 sq. ft. $283
2018-05-07 Single Family 30816 Whim Drive Westlake, CA 91362 $836,000 1,837 sq. ft. 6,534 sq. ft. $455
2018-05-07 Single Family Spanish 31573 Saddletree Drive Westlake, CA 91361 $2,999,900 6,551 sq. ft. 27,007 sq. ft. $458
2018-05-07 Single Family 1230 Kirkford Way Westlake, CA 91361 $429,000 924 sq. ft. 3,049 sq. ft. $464
2018-05-07 Single Family Tuscan 1431 Redsail Circle Westlake, CA 91361 $2,575,000 3,414 sq. ft. 5,227 sq. ft. $754
2018-05-07 Single Family Tuscan 1481 La Venta Drive Westlake, CA 91361 $4,695,000 4,722 sq. ft. 10,019 sq. ft. $994
2018-05-07 Single Family Contemporary 1476 Eastwind Circle Westlake, CA 91361 $1,790,000 2,621 sq. ft. 5,663 sq. ft. $683
2018-05-07 Single Family Traditional 1480 Cheviot Hills Court Westlake, CA 91361 $3,299,000 6,021 sq. ft. 41,818 sq. ft. $548
2018-05-07 Single Family French 2112 Trentham Road Westlake, CA 91361 $7,995,000 7,782 sq. ft. 12,197 sq. ft. $1,027
2018-05-07 Single Family 4001 Mariner Circle Westlake, CA 91361 $1,475,000 2,551 sq. ft. 6,970 sq. ft. $578
2018-05-06 Single Family 1478 Kingston Circle Westlake, CA 91362 $1,900,000 4,735 sq. ft. 33,541 sq. ft. $401
2018-05-06 Single Family 1707 Shetland Place Westlake, CA 91362 $2,295,000 4,000 sq. ft. 20,038 sq. ft. $574
2018-03-26 Single Family Traditional 4351 Spring Forest Lane Westlake, CA 91362 $3,265,000 5,568 sq. ft. 54,886 sq. ft. $586
2018-03-19 Single Family Ranch; Traditional 1730 Shetland Place Westlake, CA 91362 $2,299,000 4,587 sq. ft. 20,038 sq. ft. $501
2018-03-01 Single Family Mediterranean 955 Vista Ridge Lane Westlake, CA 91362 $8,900,000 15,835 sq. ft. 187,308 sq. ft. $562
2018-02-12 Single Family Mediterranean; Spanish 818 Rim Crest Drive Westlake, CA 91361 $1,298,000 2,915 sq. ft. 16,117 sq. ft. $445
2018-01-22 Single Family Mediterranean 1118 Country Valley Road Westlake, CA 91362 $4,395,000 6,869 sq. ft. 95,396 sq. ft. $640
2018-01-16 Single Family Spanish 1777 Saint Andrews Place Westlake, CA 91362 $1,375,000 3,526 sq. ft. 4,792 sq. ft. $390
2018-01-16 Single Family 3802 Charthouse Circle Westlake, CA 91361 $2,289,000 3,900 sq. ft. 6,970 sq. ft. $587
2018-01-16 Single Family French 3970 Victoria Lane Westlake, CA 91362 $85,000,000 50,255 sq. ft. 1,452,290 sq. ft. $1,691
2018-01-09 Single Family 3411 Woodburn Avenue Westlake, CA 91361 $3,750,000 7,977 sq. ft. 165,092 sq. ft. $470
2017-12-31 Single Family 1625 Crown Ridge Court Westlake, CA 91362 $4,500,000 13,000 sq. ft. 87,120 sq. ft. $346
2017-11-17 Single Family 2705 Elderoak Road Westlake, CA 91361 $7,995,000 10,188 sq. ft. 81,022 sq. ft. $785
2017-09-29 Single Family Spanish 4512 Sevenoaks Court Westlake, CA 91361 $1,069,000 2,372 sq. ft. 8,276 sq. ft. $451
2017-09-29 Single Family French Country; Mediterranean; Spanish; Tuscan 1880 Collingswood Court Westlake, CA 91362 $4,250,000 9,136 sq. ft. 106,286 sq. ft. $465
2017-09-22 Single Family 1233 Woodland Grove Court Westlake, CA 91362 $11,900,000 14,000 sq. ft. 191,228 sq. ft. $850
2017-07-14 Single Family Mediterranean 3906 Fairbreeze Circle Westlake, CA 91361 $2,650,000 4,000 sq. ft. 6,098 sq. ft. $662
2017-04-18 Single Family Traditional 2267 Westshore Lane Westlake, CA 91361 $1,769,000 2,051 sq. ft. 8,276 sq. ft. $863